<?xml version="1.0" encoding="UTF-8" standalone="no" ?>
<gpx xmlns="http://www.topografix.com/GPX/1/1" xmlns:xsi="http://www.w3.org/2001/XMLSchema-instance" xsi:schemaLocation="http://www.topografix.com/GPX/1/1 http://www.topografix.com/GPX/1/1/gpx.xsd" version="1.1" creator="VisuGPX - https://www.visugpx.com">
  <metadata>
    <name>Tour du lac de Guerlédan</name>
    <desc><![CDATA[tour du lac en passant par l'écluse]]></desc>
  </metadata>
  <trk>
    <name><![CDATA[Tour du lac de Guerlédan]]></name>
    <trkseg>
      <trkpt lat="48.18891" lon="-3.01859">
        <ele>90</ele>
        <time>2017-05-09T18:21:11Z</time>
      </trkpt>
      <trkpt lat="48.19001" lon="-3.01716">
        <ele>87</ele>
        <time>2017-05-09T18:21:16Z</time>
      </trkpt>
      <trkpt lat="48.19054" lon="-3.01859">
        <ele>94</ele>
        <time>2017-05-09T18:21:21Z</time>
      </trkpt>
      <trkpt lat="48.19103" lon="-3.01891">
        <ele>97</ele>
        <time>2017-05-09T18:21:26Z</time>
      </trkpt>
      <trkpt lat="48.19151" lon="-3.01912">
        <ele>99</ele>
        <time>2017-05-09T18:21:31Z</time>
      </trkpt>
      <trkpt lat="48.19207" lon="-3.01933">
        <ele>96</ele>
        <time>2017-05-09T18:21:36Z</time>
      </trkpt>
      <trkpt lat="48.19253" lon="-3.01938">
        <ele>93</ele>
        <time>2017-05-09T18:21:41Z</time>
      </trkpt>
      <trkpt lat="48.19253" lon="-3.01938">
        <ele>93</ele>
        <time>2017-05-09T18:21:46Z</time>
      </trkpt>
      <trkpt lat="48.19323" lon="-3.01871">
        <ele>99</ele>
        <time>2017-05-09T18:21:51Z</time>
      </trkpt>
      <trkpt lat="48.19281" lon="-3.01787">
        <ele>124</ele>
        <time>2017-05-09T18:21:56Z</time>
      </trkpt>
      <trkpt lat="48.19392" lon="-3.01671">
        <ele>132</ele>
        <time>2017-05-09T18:22:01Z</time>
      </trkpt>
      <trkpt lat="48.19408" lon="-3.01646">
        <ele>133</ele>
        <time>2017-05-09T18:22:06Z</time>
      </trkpt>
      <trkpt lat="48.19591" lon="-3.01353">
        <ele>139</ele>
        <time>2017-05-09T18:22:11Z</time>
      </trkpt>
      <trkpt lat="48.19654" lon="-3.01295">
        <ele>135</ele>
        <time>2017-05-09T18:22:16Z</time>
      </trkpt>
      <trkpt lat="48.19736" lon="-3.01283">
        <ele>127</ele>
        <time>2017-05-09T18:22:21Z</time>
      </trkpt>
      <trkpt lat="48.19744" lon="-3.01193">
        <ele>135</ele>
        <time>2017-05-09T18:22:26Z</time>
      </trkpt>
      <trkpt lat="48.19727" lon="-3.01017">
        <ele>144</ele>
        <time>2017-05-09T18:22:31Z</time>
      </trkpt>
      <trkpt lat="48.19775" lon="-3.00974">
        <ele>143</ele>
        <time>2017-05-09T18:22:36Z</time>
      </trkpt>
      <trkpt lat="48.19802" lon="-3.01072">
        <ele>141</ele>
        <time>2017-05-09T18:22:41Z</time>
      </trkpt>
      <trkpt lat="48.19846" lon="-3.01267">
        <ele>134</ele>
        <time>2017-05-09T18:22:46Z</time>
      </trkpt>
      <trkpt lat="48.19882" lon="-3.0134">
        <ele>137</ele>
        <time>2017-05-09T18:22:51Z</time>
      </trkpt>
      <trkpt lat="48.19921" lon="-3.01349">
        <ele>141</ele>
        <time>2017-05-09T18:22:56Z</time>
      </trkpt>
      <trkpt lat="48.19921" lon="-3.01349">
        <ele>141</ele>
        <time>2017-05-09T18:23:01Z</time>
      </trkpt>
      <trkpt lat="48.19949" lon="-3.01352">
        <ele>144</ele>
        <time>2017-05-09T18:23:06Z</time>
      </trkpt>
      <trkpt lat="48.19964" lon="-3.01327">
        <ele>148</ele>
        <time>2017-05-09T18:23:11Z</time>
      </trkpt>
      <trkpt lat="48.19974" lon="-3.01333">
        <ele>149</ele>
        <time>2017-05-09T18:23:16Z</time>
      </trkpt>
      <trkpt lat="48.20004" lon="-3.01384">
        <ele>146</ele>
        <time>2017-05-09T18:23:21Z</time>
      </trkpt>
      <trkpt lat="48.20049" lon="-3.0141">
        <ele>145</ele>
        <time>2017-05-09T18:23:26Z</time>
      </trkpt>
      <trkpt lat="48.20088" lon="-3.01398">
        <ele>147</ele>
        <time>2017-05-09T18:23:31Z</time>
      </trkpt>
      <trkpt lat="48.20141" lon="-3.01356">
        <ele>146</ele>
        <time>2017-05-09T18:23:36Z</time>
      </trkpt>
      <trkpt lat="48.20217" lon="-3.01258">
        <ele>156</ele>
        <time>2017-05-09T18:23:41Z</time>
      </trkpt>
      <trkpt lat="48.20247" lon="-3.01208">
        <ele>159</ele>
        <time>2017-05-09T18:23:46Z</time>
      </trkpt>
      <trkpt lat="48.20248" lon="-3.01181">
        <ele>160</ele>
        <time>2017-05-09T18:23:51Z</time>
      </trkpt>
      <trkpt lat="48.20207" lon="-3.01156">
        <ele>160</ele>
        <time>2017-05-09T18:23:56Z</time>
      </trkpt>
      <trkpt lat="48.20199" lon="-3.01107">
        <ele>162</ele>
        <time>2017-05-09T18:24:01Z</time>
      </trkpt>
      <trkpt lat="48.20248" lon="-3.01033">
        <ele>167</ele>
        <time>2017-05-09T18:24:06Z</time>
      </trkpt>
      <trkpt lat="48.20265" lon="-3.0104">
        <ele>166</ele>
        <time>2017-05-09T18:24:11Z</time>
      </trkpt>
      <trkpt lat="48.20265" lon="-3.0104">
        <ele>166</ele>
        <time>2017-05-09T18:24:16Z</time>
      </trkpt>
      <trkpt lat="48.2032" lon="-3.01093">
        <ele>163</ele>
        <time>2017-05-09T18:24:21Z</time>
      </trkpt>
      <trkpt lat="48.20355" lon="-3.01092">
        <ele>162</ele>
        <time>2017-05-09T18:24:26Z</time>
      </trkpt>
      <trkpt lat="48.20398" lon="-3.01096">
        <ele>160</ele>
        <time>2017-05-09T18:24:31Z</time>
      </trkpt>
      <trkpt lat="48.20446" lon="-3.01117">
        <ele>157</ele>
        <time>2017-05-09T18:24:36Z</time>
      </trkpt>
      <trkpt lat="48.20516" lon="-3.01129">
        <ele>155</ele>
        <time>2017-05-09T18:24:41Z</time>
      </trkpt>
      <trkpt lat="48.20582" lon="-3.01173">
        <ele>152</ele>
        <time>2017-05-09T18:24:46Z</time>
      </trkpt>
      <trkpt lat="48.20636" lon="-3.01226">
        <ele>150</ele>
        <time>2017-05-09T18:24:51Z</time>
      </trkpt>
      <trkpt lat="48.20701" lon="-3.0127">
        <ele>148</ele>
        <time>2017-05-09T18:24:56Z</time>
      </trkpt>
      <trkpt lat="48.20753" lon="-3.01291">
        <ele>147</ele>
        <time>2017-05-09T18:25:01Z</time>
      </trkpt>
      <trkpt lat="48.20954" lon="-3.01312">
        <ele>122</ele>
        <time>2017-05-09T18:25:06Z</time>
      </trkpt>
      <trkpt lat="48.20952" lon="-3.012">
        <ele>127</ele>
        <time>2017-05-09T18:25:11Z</time>
      </trkpt>
      <trkpt lat="48.20957" lon="-3.01015">
        <ele>131</ele>
        <time>2017-05-09T18:25:16Z</time>
      </trkpt>
      <trkpt lat="48.21041" lon="-3.01034">
        <ele>128</ele>
        <time>2017-05-09T18:25:21Z</time>
      </trkpt>
      <trkpt lat="48.21063" lon="-3.01031">
        <ele>127</ele>
        <time>2017-05-09T18:25:26Z</time>
      </trkpt>
      <trkpt lat="48.21063" lon="-3.01031">
        <ele>127</ele>
        <time>2017-05-09T18:25:31Z</time>
      </trkpt>
      <trkpt lat="48.2109" lon="-3.00981">
        <ele>129</ele>
        <time>2017-05-09T18:25:36Z</time>
      </trkpt>
      <trkpt lat="48.2114" lon="-3.00975">
        <ele>132</ele>
        <time>2017-05-09T18:25:41Z</time>
      </trkpt>
      <trkpt lat="48.21209" lon="-3.00924">
        <ele>136</ele>
        <time>2017-05-09T18:25:46Z</time>
      </trkpt>
      <trkpt lat="48.21246" lon="-3.01124">
        <ele>126</ele>
        <time>2017-05-09T18:25:51Z</time>
      </trkpt>
      <trkpt lat="48.21275" lon="-3.01265">
        <ele>127</ele>
        <time>2017-05-09T18:25:56Z</time>
      </trkpt>
      <trkpt lat="48.21343" lon="-3.01489">
        <ele>136</ele>
        <time>2017-05-09T18:26:01Z</time>
      </trkpt>
      <trkpt lat="48.21355" lon="-3.01607">
        <ele>135</ele>
        <time>2017-05-09T18:26:06Z</time>
      </trkpt>
      <trkpt lat="48.21345" lon="-3.01675">
        <ele>134</ele>
        <time>2017-05-09T18:26:11Z</time>
      </trkpt>
      <trkpt lat="48.21318" lon="-3.01735">
        <ele>131</ele>
        <time>2017-05-09T18:26:16Z</time>
      </trkpt>
      <trkpt lat="48.21296" lon="-3.01813">
        <ele>127</ele>
        <time>2017-05-09T18:26:21Z</time>
      </trkpt>
      <trkpt lat="48.21264" lon="-3.0191">
        <ele>121</ele>
        <time>2017-05-09T18:26:26Z</time>
      </trkpt>
      <trkpt lat="48.21271" lon="-3.01969">
        <ele>122</ele>
        <time>2017-05-09T18:26:31Z</time>
      </trkpt>
      <trkpt lat="48.21306" lon="-3.02068">
        <ele>123</ele>
        <time>2017-05-09T18:26:36Z</time>
      </trkpt>
      <trkpt lat="48.21304" lon="-3.02116">
        <ele>124</ele>
        <time>2017-05-09T18:26:41Z</time>
      </trkpt>
      <trkpt lat="48.21304" lon="-3.02116">
        <ele>124</ele>
        <time>2017-05-09T18:26:46Z</time>
      </trkpt>
      <trkpt lat="48.21287" lon="-3.02183">
        <ele>124</ele>
        <time>2017-05-09T18:26:51Z</time>
      </trkpt>
      <trkpt lat="48.21253" lon="-3.02227">
        <ele>120</ele>
        <time>2017-05-09T18:26:56Z</time>
      </trkpt>
      <trkpt lat="48.21214" lon="-3.02302">
        <ele>122</ele>
        <time>2017-05-09T18:27:01Z</time>
      </trkpt>
      <trkpt lat="48.2121" lon="-3.02376">
        <ele>124</ele>
        <time>2017-05-09T18:27:06Z</time>
      </trkpt>
      <trkpt lat="48.21191" lon="-3.02464">
        <ele>125</ele>
        <time>2017-05-09T18:27:11Z</time>
      </trkpt>
      <trkpt lat="48.21123" lon="-3.02468">
        <ele>124</ele>
        <time>2017-05-09T18:27:16Z</time>
      </trkpt>
      <trkpt lat="48.21059" lon="-3.02472">
        <ele>124</ele>
        <time>2017-05-09T18:27:21Z</time>
      </trkpt>
      <trkpt lat="48.21005" lon="-3.02509">
        <ele>126</ele>
        <time>2017-05-09T18:27:26Z</time>
      </trkpt>
      <trkpt lat="48.21019" lon="-3.0259">
        <ele>133</ele>
        <time>2017-05-09T18:27:31Z</time>
      </trkpt>
      <trkpt lat="48.20931" lon="-3.02565">
        <ele>133</ele>
        <time>2017-05-09T18:27:36Z</time>
      </trkpt>
      <trkpt lat="48.20897" lon="-3.02466">
        <ele>128</ele>
        <time>2017-05-09T18:27:41Z</time>
      </trkpt>
      <trkpt lat="48.20827" lon="-3.02289">
        <ele>131</ele>
        <time>2017-05-09T18:27:46Z</time>
      </trkpt>
      <trkpt lat="48.20757" lon="-3.02182">
        <ele>136</ele>
        <time>2017-05-09T18:27:51Z</time>
      </trkpt>
      <trkpt lat="48.20698" lon="-3.02006">
        <ele>139</ele>
        <time>2017-05-09T18:27:56Z</time>
      </trkpt>
      <trkpt lat="48.20698" lon="-3.02006">
        <ele>139</ele>
        <time>2017-05-09T18:28:01Z</time>
      </trkpt>
      <trkpt lat="48.20668" lon="-3.01881">
        <ele>121</ele>
        <time>2017-05-09T18:28:06Z</time>
      </trkpt>
      <trkpt lat="48.20651" lon="-3.01805">
        <ele>128</ele>
        <time>2017-05-09T18:28:11Z</time>
      </trkpt>
      <trkpt lat="48.20651" lon="-3.0172">
        <ele>128</ele>
        <time>2017-05-09T18:28:16Z</time>
      </trkpt>
      <trkpt lat="48.20644" lon="-3.01651">
        <ele>129</ele>
        <time>2017-05-09T18:28:21Z</time>
      </trkpt>
      <trkpt lat="48.20634" lon="-3.01554">
        <ele>127</ele>
        <time>2017-05-09T18:28:26Z</time>
      </trkpt>
      <trkpt lat="48.2061" lon="-3.01525">
        <ele>126</ele>
        <time>2017-05-09T18:28:31Z</time>
      </trkpt>
      <trkpt lat="48.20553" lon="-3.0153">
        <ele>129</ele>
        <time>2017-05-09T18:28:36Z</time>
      </trkpt>
      <trkpt lat="48.20515" lon="-3.01526">
        <ele>128</ele>
        <time>2017-05-09T18:28:41Z</time>
      </trkpt>
      <trkpt lat="48.20463" lon="-3.01569">
        <ele>139</ele>
        <time>2017-05-09T18:28:46Z</time>
      </trkpt>
      <trkpt lat="48.20378" lon="-3.01581">
        <ele>131</ele>
        <time>2017-05-09T18:28:51Z</time>
      </trkpt>
      <trkpt lat="48.20317" lon="-3.0166">
        <ele>131</ele>
        <time>2017-05-09T18:28:56Z</time>
      </trkpt>
      <trkpt lat="48.20302" lon="-3.01764">
        <ele>137</ele>
        <time>2017-05-09T18:29:01Z</time>
      </trkpt>
      <trkpt lat="48.20313" lon="-3.01898">
        <ele>136</ele>
        <time>2017-05-09T18:29:06Z</time>
      </trkpt>
      <trkpt lat="48.20327" lon="-3.01995">
        <ele>138</ele>
        <time>2017-05-09T18:29:11Z</time>
      </trkpt>
      <trkpt lat="48.20327" lon="-3.01995">
        <ele>138</ele>
        <time>2017-05-09T18:29:16Z</time>
      </trkpt>
      <trkpt lat="48.20291" lon="-3.02007">
        <ele>142</ele>
        <time>2017-05-09T18:29:21Z</time>
      </trkpt>
      <trkpt lat="48.20242" lon="-3.01917">
        <ele>133</ele>
        <time>2017-05-09T18:29:26Z</time>
      </trkpt>
      <trkpt lat="48.20202" lon="-3.01929">
        <ele>141</ele>
        <time>2017-05-09T18:29:31Z</time>
      </trkpt>
      <trkpt lat="48.20171" lon="-3.01915">
        <ele>144</ele>
        <time>2017-05-09T18:29:36Z</time>
      </trkpt>
      <trkpt lat="48.2018" lon="-3.01863">
        <ele>139</ele>
        <time>2017-05-09T18:29:41Z</time>
      </trkpt>
      <trkpt lat="48.20178" lon="-3.01773">
        <ele>133</ele>
        <time>2017-05-09T18:29:46Z</time>
      </trkpt>
      <trkpt lat="48.2012" lon="-3.01793">
        <ele>139</ele>
        <time>2017-05-09T18:29:51Z</time>
      </trkpt>
      <trkpt lat="48.20071" lon="-3.01778">
        <ele>143</ele>
        <time>2017-05-09T18:29:56Z</time>
      </trkpt>
      <trkpt lat="48.19988" lon="-3.01743">
        <ele>140</ele>
        <time>2017-05-09T18:30:01Z</time>
      </trkpt>
      <trkpt lat="48.19912" lon="-3.01682">
        <ele>124</ele>
        <time>2017-05-09T18:30:06Z</time>
      </trkpt>
      <trkpt lat="48.19887" lon="-3.01775">
        <ele>132</ele>
        <time>2017-05-09T18:30:11Z</time>
      </trkpt>
      <trkpt lat="48.19877" lon="-3.01927">
        <ele>133</ele>
        <time>2017-05-09T18:30:16Z</time>
      </trkpt>
      <trkpt lat="48.19898" lon="-3.02078">
        <ele>138</ele>
        <time>2017-05-09T18:30:21Z</time>
      </trkpt>
      <trkpt lat="48.19879" lon="-3.02261">
        <ele>134</ele>
        <time>2017-05-09T18:30:26Z</time>
      </trkpt>
      <trkpt lat="48.19879" lon="-3.02261">
        <ele>134</ele>
        <time>2017-05-09T18:30:31Z</time>
      </trkpt>
      <trkpt lat="48.19793" lon="-3.02369">
        <ele>121</ele>
        <time>2017-05-09T18:30:36Z</time>
      </trkpt>
      <trkpt lat="48.19785" lon="-3.02448">
        <ele>123</ele>
        <time>2017-05-09T18:30:41Z</time>
      </trkpt>
      <trkpt lat="48.1978" lon="-3.02569">
        <ele>126</ele>
        <time>2017-05-09T18:30:46Z</time>
      </trkpt>
      <trkpt lat="48.19807" lon="-3.02683">
        <ele>126</ele>
        <time>2017-05-09T18:30:51Z</time>
      </trkpt>
      <trkpt lat="48.19839" lon="-3.02745">
        <ele>123</ele>
        <time>2017-05-09T18:30:56Z</time>
      </trkpt>
      <trkpt lat="48.19959" lon="-3.02868">
        <ele>148</ele>
        <time>2017-05-09T18:31:01Z</time>
      </trkpt>
      <trkpt lat="48.19991" lon="-3.02935">
        <ele>152</ele>
        <time>2017-05-09T18:31:06Z</time>
      </trkpt>
      <trkpt lat="48.20113" lon="-3.03069">
        <ele>158</ele>
        <time>2017-05-09T18:31:11Z</time>
      </trkpt>
      <trkpt lat="48.20204" lon="-3.03158">
        <ele>165</ele>
        <time>2017-05-09T18:31:16Z</time>
      </trkpt>
      <trkpt lat="48.20307" lon="-3.03227">
        <ele>174</ele>
        <time>2017-05-09T18:31:21Z</time>
      </trkpt>
      <trkpt lat="48.20361" lon="-3.03217">
        <ele>179</ele>
        <time>2017-05-09T18:31:26Z</time>
      </trkpt>
      <trkpt lat="48.20423" lon="-3.03403">
        <ele>171</ele>
        <time>2017-05-09T18:31:31Z</time>
      </trkpt>
      <trkpt lat="48.20421" lon="-3.03449">
        <ele>164</ele>
        <time>2017-05-09T18:31:36Z</time>
      </trkpt>
      <trkpt lat="48.20488" lon="-3.0362">
        <ele>153</ele>
        <time>2017-05-09T18:31:41Z</time>
      </trkpt>
      <trkpt lat="48.20488" lon="-3.0362">
        <ele>153</ele>
        <time>2017-05-09T18:31:46Z</time>
      </trkpt>
      <trkpt lat="48.20558" lon="-3.03865">
        <ele>152</ele>
        <time>2017-05-09T18:31:51Z</time>
      </trkpt>
      <trkpt lat="48.20525" lon="-3.03894">
        <ele>141</ele>
        <time>2017-05-09T18:31:56Z</time>
      </trkpt>
      <trkpt lat="48.20512" lon="-3.03951">
        <ele>132</ele>
        <time>2017-05-09T18:32:01Z</time>
      </trkpt>
      <trkpt lat="48.20528" lon="-3.04053">
        <ele>128</ele>
        <time>2017-05-09T18:32:06Z</time>
      </trkpt>
      <trkpt lat="48.20542" lon="-3.04219">
        <ele>123</ele>
        <time>2017-05-09T18:32:11Z</time>
      </trkpt>
      <trkpt lat="48.20603" lon="-3.04278">
        <ele>124</ele>
        <time>2017-05-09T18:32:16Z</time>
      </trkpt>
      <trkpt lat="48.20661" lon="-3.04252">
        <ele>137</ele>
        <time>2017-05-09T18:32:21Z</time>
      </trkpt>
      <trkpt lat="48.20676" lon="-3.04296">
        <ele>131</ele>
        <time>2017-05-09T18:32:26Z</time>
      </trkpt>
      <trkpt lat="48.20652" lon="-3.04357">
        <ele>121</ele>
        <time>2017-05-09T18:32:31Z</time>
      </trkpt>
      <trkpt lat="48.20703" lon="-3.04405">
        <ele>127</ele>
        <time>2017-05-09T18:32:36Z</time>
      </trkpt>
      <trkpt lat="48.20782" lon="-3.04466">
        <ele>128</ele>
        <time>2017-05-09T18:32:41Z</time>
      </trkpt>
      <trkpt lat="48.20858" lon="-3.04421">
        <ele>134</ele>
        <time>2017-05-09T18:32:46Z</time>
      </trkpt>
      <trkpt lat="48.20915" lon="-3.04342">
        <ele>137</ele>
        <time>2017-05-09T18:32:51Z</time>
      </trkpt>
      <trkpt lat="48.20938" lon="-3.04296">
        <ele>139</ele>
        <time>2017-05-09T18:32:56Z</time>
      </trkpt>
      <trkpt lat="48.20938" lon="-3.04296">
        <ele>139</ele>
        <time>2017-05-09T18:33:01Z</time>
      </trkpt>
      <trkpt lat="48.20967" lon="-3.04215">
        <ele>138</ele>
        <time>2017-05-09T18:33:06Z</time>
      </trkpt>
      <trkpt lat="48.21035" lon="-3.0411">
        <ele>136</ele>
        <time>2017-05-09T18:33:11Z</time>
      </trkpt>
      <trkpt lat="48.21038" lon="-3.04201">
        <ele>135</ele>
        <time>2017-05-09T18:33:16Z</time>
      </trkpt>
      <trkpt lat="48.21022" lon="-3.04326">
        <ele>135</ele>
        <time>2017-05-09T18:33:21Z</time>
      </trkpt>
      <trkpt lat="48.20997" lon="-3.04403">
        <ele>136</ele>
        <time>2017-05-09T18:33:26Z</time>
      </trkpt>
      <trkpt lat="48.20952" lon="-3.04473">
        <ele>135</ele>
        <time>2017-05-09T18:33:31Z</time>
      </trkpt>
      <trkpt lat="48.20928" lon="-3.04513">
        <ele>134</ele>
        <time>2017-05-09T18:33:36Z</time>
      </trkpt>
      <trkpt lat="48.20876" lon="-3.04566">
        <ele>130</ele>
        <time>2017-05-09T18:33:41Z</time>
      </trkpt>
      <trkpt lat="48.20863" lon="-3.04617">
        <ele>128</ele>
        <time>2017-05-09T18:33:46Z</time>
      </trkpt>
      <trkpt lat="48.20875" lon="-3.04671">
        <ele>129</ele>
        <time>2017-05-09T18:33:51Z</time>
      </trkpt>
      <trkpt lat="48.20905" lon="-3.04717">
        <ele>131</ele>
        <time>2017-05-09T18:33:56Z</time>
      </trkpt>
      <trkpt lat="48.20924" lon="-3.04767">
        <ele>131</ele>
        <time>2017-05-09T18:34:01Z</time>
      </trkpt>
      <trkpt lat="48.20995" lon="-3.04843">
        <ele>135</ele>
        <time>2017-05-09T18:34:06Z</time>
      </trkpt>
      <trkpt lat="48.2107" lon="-3.04903">
        <ele>134</ele>
        <time>2017-05-09T18:34:11Z</time>
      </trkpt>
      <trkpt lat="48.2107" lon="-3.04903">
        <ele>134</ele>
        <time>2017-05-09T18:34:16Z</time>
      </trkpt>
      <trkpt lat="48.21065" lon="-3.04935">
        <ele>134</ele>
        <time>2017-05-09T18:34:21Z</time>
      </trkpt>
      <trkpt lat="48.2102" lon="-3.04914">
        <ele>132</ele>
        <time>2017-05-09T18:34:26Z</time>
      </trkpt>
      <trkpt lat="48.20987" lon="-3.04943">
        <ele>135</ele>
        <time>2017-05-09T18:34:31Z</time>
      </trkpt>
      <trkpt lat="48.20903" lon="-3.04923">
        <ele>133</ele>
        <time>2017-05-09T18:34:36Z</time>
      </trkpt>
      <trkpt lat="48.20853" lon="-3.04844">
        <ele>133</ele>
        <time>2017-05-09T18:34:41Z</time>
      </trkpt>
      <trkpt lat="48.2082" lon="-3.04798">
        <ele>131</ele>
        <time>2017-05-09T18:34:46Z</time>
      </trkpt>
      <trkpt lat="48.20732" lon="-3.04699">
        <ele>127</ele>
        <time>2017-05-09T18:34:51Z</time>
      </trkpt>
      <trkpt lat="48.20662" lon="-3.04602">
        <ele>124</ele>
        <time>2017-05-09T18:34:56Z</time>
      </trkpt>
      <trkpt lat="48.20627" lon="-3.04593">
        <ele>122</ele>
        <time>2017-05-09T18:35:01Z</time>
      </trkpt>
      <trkpt lat="48.20587" lon="-3.04621">
        <ele>121</ele>
        <time>2017-05-09T18:35:06Z</time>
      </trkpt>
      <trkpt lat="48.20538" lon="-3.04685">
        <ele>122</ele>
        <time>2017-05-09T18:35:11Z</time>
      </trkpt>
      <trkpt lat="48.2055" lon="-3.04744">
        <ele>124</ele>
        <time>2017-05-09T18:35:16Z</time>
      </trkpt>
      <trkpt lat="48.20601" lon="-3.04861">
        <ele>127</ele>
        <time>2017-05-09T18:35:21Z</time>
      </trkpt>
      <trkpt lat="48.20611" lon="-3.04941">
        <ele>128</ele>
        <time>2017-05-09T18:35:26Z</time>
      </trkpt>
      <trkpt lat="48.20611" lon="-3.04941">
        <ele>128</ele>
        <time>2017-05-09T18:35:31Z</time>
      </trkpt>
      <trkpt lat="48.20646" lon="-3.0504">
        <ele>132</ele>
        <time>2017-05-09T18:35:36Z</time>
      </trkpt>
      <trkpt lat="48.20723" lon="-3.05217">
        <ele>144</ele>
        <time>2017-05-09T18:35:41Z</time>
      </trkpt>
      <trkpt lat="48.20809" lon="-3.05332">
        <ele>157</ele>
        <time>2017-05-09T18:35:46Z</time>
      </trkpt>
      <trkpt lat="48.20864" lon="-3.0537">
        <ele>157</ele>
        <time>2017-05-09T18:35:51Z</time>
      </trkpt>
      <trkpt lat="48.20963" lon="-3.05385">
        <ele>163</ele>
        <time>2017-05-09T18:35:56Z</time>
      </trkpt>
      <trkpt lat="48.2096" lon="-3.05523">
        <ele>161</ele>
        <time>2017-05-09T18:36:01Z</time>
      </trkpt>
      <trkpt lat="48.20995" lon="-3.05685">
        <ele>170</ele>
        <time>2017-05-09T18:36:06Z</time>
      </trkpt>
      <trkpt lat="48.20935" lon="-3.0569">
        <ele>168</ele>
        <time>2017-05-09T18:36:11Z</time>
      </trkpt>
      <trkpt lat="48.20896" lon="-3.05617">
        <ele>160</ele>
        <time>2017-05-09T18:36:16Z</time>
      </trkpt>
      <trkpt lat="48.20875" lon="-3.05604">
        <ele>157</ele>
        <time>2017-05-09T18:36:21Z</time>
      </trkpt>
      <trkpt lat="48.20839" lon="-3.05616">
        <ele>156</ele>
        <time>2017-05-09T18:36:26Z</time>
      </trkpt>
      <trkpt lat="48.20776" lon="-3.05758">
        <ele>150</ele>
        <time>2017-05-09T18:36:31Z</time>
      </trkpt>
      <trkpt lat="48.20753" lon="-3.05867">
        <ele>147</ele>
        <time>2017-05-09T18:36:36Z</time>
      </trkpt>
      <trkpt lat="48.20721" lon="-3.05943">
        <ele>141</ele>
        <time>2017-05-09T18:36:41Z</time>
      </trkpt>
      <trkpt lat="48.20721" lon="-3.05943">
        <ele>141</ele>
        <time>2017-05-09T18:36:46Z</time>
      </trkpt>
      <trkpt lat="48.20718" lon="-3.06091">
        <ele>140</ele>
        <time>2017-05-09T18:36:51Z</time>
      </trkpt>
      <trkpt lat="48.20747" lon="-3.06232">
        <ele>151</ele>
        <time>2017-05-09T18:36:56Z</time>
      </trkpt>
      <trkpt lat="48.20719" lon="-3.06441">
        <ele>143</ele>
        <time>2017-05-09T18:37:01Z</time>
      </trkpt>
      <trkpt lat="48.20706" lon="-3.06506">
        <ele>145</ele>
        <time>2017-05-09T18:37:06Z</time>
      </trkpt>
      <trkpt lat="48.20676" lon="-3.06625">
        <ele>136</ele>
        <time>2017-05-09T18:37:11Z</time>
      </trkpt>
      <trkpt lat="48.20626" lon="-3.06848">
        <ele>127</ele>
        <time>2017-05-09T18:37:16Z</time>
      </trkpt>
      <trkpt lat="48.20643" lon="-3.0703">
        <ele>128</ele>
        <time>2017-05-09T18:37:21Z</time>
      </trkpt>
      <trkpt lat="48.20694" lon="-3.07152">
        <ele>127</ele>
        <time>2017-05-09T18:37:26Z</time>
      </trkpt>
      <trkpt lat="48.20791" lon="-3.07358">
        <ele>126</ele>
        <time>2017-05-09T18:37:31Z</time>
      </trkpt>
      <trkpt lat="48.20854" lon="-3.07439">
        <ele>123</ele>
        <time>2017-05-09T18:37:36Z</time>
      </trkpt>
      <trkpt lat="48.20866" lon="-3.07424">
        <ele>126</ele>
        <time>2017-05-09T18:37:41Z</time>
      </trkpt>
      <trkpt lat="48.20859" lon="-3.07344">
        <ele>138</ele>
        <time>2017-05-09T18:37:46Z</time>
      </trkpt>
      <trkpt lat="48.20948" lon="-3.07257">
        <ele>157</ele>
        <time>2017-05-09T18:37:51Z</time>
      </trkpt>
      <trkpt lat="48.20994" lon="-3.07326">
        <ele>146</ele>
        <time>2017-05-09T18:37:56Z</time>
      </trkpt>
      <trkpt lat="48.20994" lon="-3.07326">
        <ele>146</ele>
        <time>2017-05-09T18:38:01Z</time>
      </trkpt>
      <trkpt lat="48.2106" lon="-3.07348">
        <ele>148</ele>
        <time>2017-05-09T18:38:06Z</time>
      </trkpt>
      <trkpt lat="48.21058" lon="-3.07391">
        <ele>144</ele>
        <time>2017-05-09T18:38:11Z</time>
      </trkpt>
      <trkpt lat="48.21092" lon="-3.07421">
        <ele>144</ele>
        <time>2017-05-09T18:38:16Z</time>
      </trkpt>
      <trkpt lat="48.21121" lon="-3.07413">
        <ele>142</ele>
        <time>2017-05-09T18:38:21Z</time>
      </trkpt>
      <trkpt lat="48.21147" lon="-3.07389">
        <ele>142</ele>
        <time>2017-05-09T18:38:26Z</time>
      </trkpt>
      <trkpt lat="48.21196" lon="-3.07315">
        <ele>147</ele>
        <time>2017-05-09T18:38:31Z</time>
      </trkpt>
      <trkpt lat="48.21239" lon="-3.07309">
        <ele>145</ele>
        <time>2017-05-09T18:38:36Z</time>
      </trkpt>
      <trkpt lat="48.21228" lon="-3.07551">
        <ele>148</ele>
        <time>2017-05-09T18:38:41Z</time>
      </trkpt>
      <trkpt lat="48.21217" lon="-3.07555">
        <ele>147</ele>
        <time>2017-05-09T18:38:46Z</time>
      </trkpt>
      <trkpt lat="48.21187" lon="-3.076">
        <ele>143</ele>
        <time>2017-05-09T18:38:51Z</time>
      </trkpt>
      <trkpt lat="48.21178" lon="-3.07636">
        <ele>143</ele>
        <time>2017-05-09T18:38:56Z</time>
      </trkpt>
      <trkpt lat="48.2118" lon="-3.07737">
        <ele>142</ele>
        <time>2017-05-09T18:39:01Z</time>
      </trkpt>
      <trkpt lat="48.21291" lon="-3.07802">
        <ele>145</ele>
        <time>2017-05-09T18:39:06Z</time>
      </trkpt>
      <trkpt lat="48.21396" lon="-3.07828">
        <ele>149</ele>
        <time>2017-05-09T18:39:11Z</time>
      </trkpt>
      <trkpt lat="48.21396" lon="-3.07828">
        <ele>149</ele>
        <time>2017-05-09T18:39:16Z</time>
      </trkpt>
      <trkpt lat="48.21419" lon="-3.07857">
        <ele>147</ele>
        <time>2017-05-09T18:39:21Z</time>
      </trkpt>
      <trkpt lat="48.21408" lon="-3.07957">
        <ele>138</ele>
        <time>2017-05-09T18:39:26Z</time>
      </trkpt>
      <trkpt lat="48.21385" lon="-3.07986">
        <ele>137</ele>
        <time>2017-05-09T18:39:31Z</time>
      </trkpt>
      <trkpt lat="48.21406" lon="-3.08078">
        <ele>144</ele>
        <time>2017-05-09T18:39:36Z</time>
      </trkpt>
      <trkpt lat="48.21404" lon="-3.08195">
        <ele>151</ele>
        <time>2017-05-09T18:39:41Z</time>
      </trkpt>
      <trkpt lat="48.21367" lon="-3.08223">
        <ele>153</ele>
        <time>2017-05-09T18:39:46Z</time>
      </trkpt>
      <trkpt lat="48.21346" lon="-3.0821">
        <ele>153</ele>
        <time>2017-05-09T18:39:51Z</time>
      </trkpt>
      <trkpt lat="48.21352" lon="-3.08094">
        <ele>145</ele>
        <time>2017-05-09T18:39:56Z</time>
      </trkpt>
      <trkpt lat="48.21329" lon="-3.08055">
        <ele>142</ele>
        <time>2017-05-09T18:40:01Z</time>
      </trkpt>
      <trkpt lat="48.21322" lon="-3.07974">
        <ele>135</ele>
        <time>2017-05-09T18:40:06Z</time>
      </trkpt>
      <trkpt lat="48.21297" lon="-3.07972">
        <ele>132</ele>
        <time>2017-05-09T18:40:11Z</time>
      </trkpt>
      <trkpt lat="48.21264" lon="-3.08005">
        <ele>129</ele>
        <time>2017-05-09T18:40:16Z</time>
      </trkpt>
      <trkpt lat="48.21229" lon="-3.08071">
        <ele>127</ele>
        <time>2017-05-09T18:40:21Z</time>
      </trkpt>
      <trkpt lat="48.21209" lon="-3.08185">
        <ele>130</ele>
        <time>2017-05-09T18:40:26Z</time>
      </trkpt>
      <trkpt lat="48.21209" lon="-3.08185">
        <ele>130</ele>
        <time>2017-05-09T18:40:31Z</time>
      </trkpt>
      <trkpt lat="48.21173" lon="-3.08277">
        <ele>133</ele>
        <time>2017-05-09T18:40:36Z</time>
      </trkpt>
      <trkpt lat="48.21101" lon="-3.08317">
        <ele>131</ele>
        <time>2017-05-09T18:40:41Z</time>
      </trkpt>
      <trkpt lat="48.21101" lon="-3.08381">
        <ele>134</ele>
        <time>2017-05-09T18:40:46Z</time>
      </trkpt>
      <trkpt lat="48.21108" lon="-3.08461">
        <ele>139</ele>
        <time>2017-05-09T18:40:51Z</time>
      </trkpt>
      <trkpt lat="48.21127" lon="-3.08595">
        <ele>143</ele>
        <time>2017-05-09T18:40:56Z</time>
      </trkpt>
      <trkpt lat="48.21134" lon="-3.08739">
        <ele>142</ele>
        <time>2017-05-09T18:41:01Z</time>
      </trkpt>
      <trkpt lat="48.21155" lon="-3.08821">
        <ele>142</ele>
        <time>2017-05-09T18:41:06Z</time>
      </trkpt>
      <trkpt lat="48.21146" lon="-3.08857">
        <ele>145</ele>
        <time>2017-05-09T18:41:11Z</time>
      </trkpt>
      <trkpt lat="48.21125" lon="-3.08871">
        <ele>146</ele>
        <time>2017-05-09T18:41:16Z</time>
      </trkpt>
      <trkpt lat="48.21009" lon="-3.08769">
        <ele>142</ele>
        <time>2017-05-09T18:41:21Z</time>
      </trkpt>
      <trkpt lat="48.20937" lon="-3.08798">
        <ele>158</ele>
        <time>2017-05-09T18:41:26Z</time>
      </trkpt>
      <trkpt lat="48.20901" lon="-3.08731">
        <ele>154</ele>
        <time>2017-05-09T18:41:31Z</time>
      </trkpt>
      <trkpt lat="48.20823" lon="-3.08659">
        <ele>141</ele>
        <time>2017-05-09T18:41:36Z</time>
      </trkpt>
      <trkpt lat="48.20794" lon="-3.08736">
        <ele>154</ele>
        <time>2017-05-09T18:41:41Z</time>
      </trkpt>
      <trkpt lat="48.20794" lon="-3.08736">
        <ele>154</ele>
        <time>2017-05-09T18:41:46Z</time>
      </trkpt>
      <trkpt lat="48.20757" lon="-3.0869">
        <ele>139</ele>
        <time>2017-05-09T18:41:51Z</time>
      </trkpt>
      <trkpt lat="48.20666" lon="-3.0868">
        <ele>139</ele>
        <time>2017-05-09T18:41:56Z</time>
      </trkpt>
      <trkpt lat="48.2051" lon="-3.08669">
        <ele>134</ele>
        <time>2017-05-09T18:42:01Z</time>
      </trkpt>
      <trkpt lat="48.20428" lon="-3.08693">
        <ele>126</ele>
        <time>2017-05-09T18:42:06Z</time>
      </trkpt>
      <trkpt lat="48.20414" lon="-3.08755">
        <ele>131</ele>
        <time>2017-05-09T18:42:11Z</time>
      </trkpt>
      <trkpt lat="48.20376" lon="-3.08899">
        <ele>133</ele>
        <time>2017-05-09T18:42:16Z</time>
      </trkpt>
      <trkpt lat="48.20302" lon="-3.0904">
        <ele>134</ele>
        <time>2017-05-09T18:42:21Z</time>
      </trkpt>
      <trkpt lat="48.20255" lon="-3.0921">
        <ele>123</ele>
        <time>2017-05-09T18:42:26Z</time>
      </trkpt>
      <trkpt lat="48.20235" lon="-3.09351">
        <ele>124</ele>
        <time>2017-05-09T18:42:31Z</time>
      </trkpt>
      <trkpt lat="48.20286" lon="-3.09388">
        <ele>128</ele>
        <time>2017-05-09T18:42:36Z</time>
      </trkpt>
      <trkpt lat="48.20337" lon="-3.09356">
        <ele>142</ele>
        <time>2017-05-09T18:42:41Z</time>
      </trkpt>
      <trkpt lat="48.20408" lon="-3.09364">
        <ele>146</ele>
        <time>2017-05-09T18:42:46Z</time>
      </trkpt>
      <trkpt lat="48.20486" lon="-3.09419">
        <ele>141</ele>
        <time>2017-05-09T18:42:51Z</time>
      </trkpt>
      <trkpt lat="48.20568" lon="-3.09497">
        <ele>139</ele>
        <time>2017-05-09T18:42:56Z</time>
      </trkpt>
      <trkpt lat="48.20568" lon="-3.09497">
        <ele>139</ele>
        <time>2017-05-09T18:43:01Z</time>
      </trkpt>
      <trkpt lat="48.20633" lon="-3.09609">
        <ele>135</ele>
        <time>2017-05-09T18:43:06Z</time>
      </trkpt>
      <trkpt lat="48.20658" lon="-3.09702">
        <ele>135</ele>
        <time>2017-05-09T18:43:11Z</time>
      </trkpt>
      <trkpt lat="48.20669" lon="-3.0991">
        <ele>136</ele>
        <time>2017-05-09T18:43:16Z</time>
      </trkpt>
      <trkpt lat="48.20656" lon="-3.10036">
        <ele>137</ele>
        <time>2017-05-09T18:43:21Z</time>
      </trkpt>
      <trkpt lat="48.2059" lon="-3.1031">
        <ele>135</ele>
        <time>2017-05-09T18:43:26Z</time>
      </trkpt>
      <trkpt lat="48.2055" lon="-3.10491">
        <ele>138</ele>
        <time>2017-05-09T18:43:31Z</time>
      </trkpt>
      <trkpt lat="48.20559" lon="-3.10598">
        <ele>136</ele>
        <time>2017-05-09T18:43:36Z</time>
      </trkpt>
      <trkpt lat="48.206" lon="-3.10629">
        <ele>133</ele>
        <time>2017-05-09T18:43:41Z</time>
      </trkpt>
      <trkpt lat="48.20648" lon="-3.10591">
        <ele>134</ele>
        <time>2017-05-09T18:43:46Z</time>
      </trkpt>
      <trkpt lat="48.20704" lon="-3.10613">
        <ele>136</ele>
        <time>2017-05-09T18:43:51Z</time>
      </trkpt>
      <trkpt lat="48.20774" lon="-3.10631">
        <ele>139</ele>
        <time>2017-05-09T18:43:56Z</time>
      </trkpt>
      <trkpt lat="48.20843" lon="-3.10665">
        <ele>143</ele>
        <time>2017-05-09T18:44:01Z</time>
      </trkpt>
      <trkpt lat="48.20891" lon="-3.10712">
        <ele>143</ele>
        <time>2017-05-09T18:44:06Z</time>
      </trkpt>
      <trkpt lat="48.20931" lon="-3.10748">
        <ele>143</ele>
        <time>2017-05-09T18:44:11Z</time>
      </trkpt>
      <trkpt lat="48.20931" lon="-3.10748">
        <ele>143</ele>
        <time>2017-05-09T18:44:16Z</time>
      </trkpt>
      <trkpt lat="48.20921" lon="-3.10816">
        <ele>138</ele>
        <time>2017-05-09T18:44:21Z</time>
      </trkpt>
      <trkpt lat="48.20878" lon="-3.10912">
        <ele>134</ele>
        <time>2017-05-09T18:44:26Z</time>
      </trkpt>
      <trkpt lat="48.20761" lon="-3.10995">
        <ele>130</ele>
        <time>2017-05-09T18:44:31Z</time>
      </trkpt>
      <trkpt lat="48.20715" lon="-3.10985">
        <ele>130</ele>
        <time>2017-05-09T18:44:36Z</time>
      </trkpt>
      <trkpt lat="48.20671" lon="-3.10901">
        <ele>138</ele>
        <time>2017-05-09T18:48:36Z</time>
      </trkpt>
      <trkpt lat="48.20683" lon="-3.10886">
        <ele>138</ele>
        <time>2017-05-09T18:48:41Z</time>
      </trkpt>
      <trkpt lat="48.20686" lon="-3.10823">
        <ele>141</ele>
        <time>2017-05-09T18:48:46Z</time>
      </trkpt>
      <trkpt lat="48.20666" lon="-3.10789">
        <ele>139</ele>
        <time>2017-05-09T18:48:51Z</time>
      </trkpt>
      <trkpt lat="48.20622" lon="-3.10753">
        <ele>139</ele>
        <time>2017-05-09T18:48:56Z</time>
      </trkpt>
      <trkpt lat="48.20538" lon="-3.10712">
        <ele>146</ele>
        <time>2017-05-09T18:49:01Z</time>
      </trkpt>
      <trkpt lat="48.20469" lon="-3.10599">
        <ele>157</ele>
        <time>2017-05-09T18:49:06Z</time>
      </trkpt>
      <trkpt lat="48.20481" lon="-3.10494">
        <ele>153</ele>
        <time>2017-05-09T18:49:11Z</time>
      </trkpt>
      <trkpt lat="48.20481" lon="-3.10494">
        <ele>153</ele>
        <time>2017-05-09T18:49:16Z</time>
      </trkpt>
      <trkpt lat="48.20496" lon="-3.10247">
        <ele>156</ele>
        <time>2017-05-09T18:49:21Z</time>
      </trkpt>
      <trkpt lat="48.20527" lon="-3.10115">
        <ele>157</ele>
        <time>2017-05-09T18:49:26Z</time>
      </trkpt>
      <trkpt lat="48.20552" lon="-3.10032">
        <ele>154</ele>
        <time>2017-05-09T18:49:31Z</time>
      </trkpt>
      <trkpt lat="48.20563" lon="-3.09885">
        <ele>151</ele>
        <time>2017-05-09T18:49:36Z</time>
      </trkpt>
      <trkpt lat="48.20547" lon="-3.09767">
        <ele>149</ele>
        <time>2017-05-09T18:49:41Z</time>
      </trkpt>
      <trkpt lat="48.20499" lon="-3.09651">
        <ele>138</ele>
        <time>2017-05-09T18:49:46Z</time>
      </trkpt>
      <trkpt lat="48.2042" lon="-3.0959">
        <ele>141</ele>
        <time>2017-05-09T18:49:51Z</time>
      </trkpt>
      <trkpt lat="48.20335" lon="-3.09607">
        <ele>150</ele>
        <time>2017-05-09T18:49:56Z</time>
      </trkpt>
      <trkpt lat="48.20276" lon="-3.09659">
        <ele>157</ele>
        <time>2017-05-09T18:50:01Z</time>
      </trkpt>
      <trkpt lat="48.20224" lon="-3.09707">
        <ele>162</ele>
        <time>2017-05-09T18:50:06Z</time>
      </trkpt>
      <trkpt lat="48.20192" lon="-3.09698">
        <ele>163</ele>
        <time>2017-05-09T18:50:11Z</time>
      </trkpt>
      <trkpt lat="48.20174" lon="-3.09638">
        <ele>158</ele>
        <time>2017-05-09T18:50:16Z</time>
      </trkpt>
      <trkpt lat="48.2013" lon="-3.09581">
        <ele>159</ele>
        <time>2017-05-09T18:50:21Z</time>
      </trkpt>
      <trkpt lat="48.20109" lon="-3.0951">
        <ele>157</ele>
        <time>2017-05-09T18:50:26Z</time>
      </trkpt>
      <trkpt lat="48.20109" lon="-3.0951">
        <ele>157</ele>
        <time>2017-05-09T18:50:31Z</time>
      </trkpt>
      <trkpt lat="48.20091" lon="-3.0937">
        <ele>152</ele>
        <time>2017-05-09T18:50:36Z</time>
      </trkpt>
      <trkpt lat="48.2012" lon="-3.09188">
        <ele>149</ele>
        <time>2017-05-09T18:50:41Z</time>
      </trkpt>
      <trkpt lat="48.2012" lon="-3.09044">
        <ele>152</ele>
        <time>2017-05-09T18:50:46Z</time>
      </trkpt>
      <trkpt lat="48.20152" lon="-3.08889">
        <ele>151</ele>
        <time>2017-05-09T18:50:51Z</time>
      </trkpt>
      <trkpt lat="48.20192" lon="-3.08776">
        <ele>146</ele>
        <time>2017-05-09T18:50:56Z</time>
      </trkpt>
      <trkpt lat="48.20299" lon="-3.08549">
        <ele>144</ele>
        <time>2017-05-09T18:51:01Z</time>
      </trkpt>
      <trkpt lat="48.20383" lon="-3.08415">
        <ele>150</ele>
        <time>2017-05-09T18:51:06Z</time>
      </trkpt>
      <trkpt lat="48.20462" lon="-3.0838">
        <ele>150</ele>
        <time>2017-05-09T18:51:11Z</time>
      </trkpt>
      <trkpt lat="48.20557" lon="-3.08396">
        <ele>148</ele>
        <time>2017-05-09T18:51:16Z</time>
      </trkpt>
      <trkpt lat="48.20602" lon="-3.08411">
        <ele>147</ele>
        <time>2017-05-09T18:51:21Z</time>
      </trkpt>
      <trkpt lat="48.20644" lon="-3.08436">
        <ele>141</ele>
        <time>2017-05-09T18:51:26Z</time>
      </trkpt>
      <trkpt lat="48.20686" lon="-3.08441">
        <ele>139</ele>
        <time>2017-05-09T18:51:31Z</time>
      </trkpt>
      <trkpt lat="48.20725" lon="-3.08376">
        <ele>151</ele>
        <time>2017-05-09T18:51:36Z</time>
      </trkpt>
      <trkpt lat="48.20766" lon="-3.08401">
        <ele>143</ele>
        <time>2017-05-09T18:51:41Z</time>
      </trkpt>
      <trkpt lat="48.20766" lon="-3.08401">
        <ele>143</ele>
        <time>2017-05-09T18:51:46Z</time>
      </trkpt>
      <trkpt lat="48.20796" lon="-3.08367">
        <ele>141</ele>
        <time>2017-05-09T18:51:51Z</time>
      </trkpt>
      <trkpt lat="48.2086" lon="-3.08284">
        <ele>133</ele>
        <time>2017-05-09T18:51:56Z</time>
      </trkpt>
      <trkpt lat="48.20853" lon="-3.08193">
        <ele>138</ele>
        <time>2017-05-09T18:52:01Z</time>
      </trkpt>
      <trkpt lat="48.2085" lon="-3.08113">
        <ele>139</ele>
        <time>2017-05-09T18:52:06Z</time>
      </trkpt>
      <trkpt lat="48.20854" lon="-3.08034">
        <ele>138</ele>
        <time>2017-05-09T18:52:11Z</time>
      </trkpt>
      <trkpt lat="48.20855" lon="-3.08008">
        <ele>137</ele>
        <time>2017-05-09T18:52:16Z</time>
      </trkpt>
      <trkpt lat="48.20887" lon="-3.07926">
        <ele>134</ele>
        <time>2017-05-09T18:52:21Z</time>
      </trkpt>
      <trkpt lat="48.20914" lon="-3.07881">
        <ele>128</ele>
        <time>2017-05-09T18:52:26Z</time>
      </trkpt>
      <trkpt lat="48.2089" lon="-3.07863">
        <ele>128</ele>
        <time>2017-05-09T18:52:31Z</time>
      </trkpt>
      <trkpt lat="48.20851" lon="-3.07859">
        <ele>132</ele>
        <time>2017-05-09T18:52:36Z</time>
      </trkpt>
      <trkpt lat="48.20776" lon="-3.07803">
        <ele>134</ele>
        <time>2017-05-09T18:52:41Z</time>
      </trkpt>
      <trkpt lat="48.20682" lon="-3.07683">
        <ele>135</ele>
        <time>2017-05-09T18:52:46Z</time>
      </trkpt>
      <trkpt lat="48.20598" lon="-3.07578">
        <ele>139</ele>
        <time>2017-05-09T18:52:51Z</time>
      </trkpt>
      <trkpt lat="48.2052" lon="-3.07438">
        <ele>146</ele>
        <time>2017-05-09T18:52:56Z</time>
      </trkpt>
      <trkpt lat="48.2052" lon="-3.07438">
        <ele>146</ele>
        <time>2017-05-09T18:53:01Z</time>
      </trkpt>
      <trkpt lat="48.20413" lon="-3.06951">
        <ele>127</ele>
        <time>2017-05-09T18:53:06Z</time>
      </trkpt>
      <trkpt lat="48.20413" lon="-3.06951">
        <ele>127</ele>
        <time>2017-05-09T18:53:11Z</time>
      </trkpt>
      <trkpt lat="48.20189" lon="-3.06901">
        <ele>140</ele>
        <time>2017-05-09T18:53:16Z</time>
      </trkpt>
      <trkpt lat="48.20189" lon="-3.06901">
        <ele>140</ele>
        <time>2017-05-09T18:53:21Z</time>
      </trkpt>
      <trkpt lat="48.20405" lon="-3.06628">
        <ele>133</ele>
        <time>2017-05-09T18:53:26Z</time>
      </trkpt>
      <trkpt lat="48.20405" lon="-3.06628">
        <ele>133</ele>
        <time>2017-05-09T18:53:31Z</time>
      </trkpt>
      <trkpt lat="48.2041" lon="-3.06597">
        <ele>138</ele>
        <time>2017-05-09T18:53:36Z</time>
      </trkpt>
      <trkpt lat="48.20407" lon="-3.06506">
        <ele>145</ele>
        <time>2017-05-09T18:53:41Z</time>
      </trkpt>
      <trkpt lat="48.20408" lon="-3.06395">
        <ele>143</ele>
        <time>2017-05-09T18:53:46Z</time>
      </trkpt>
      <trkpt lat="48.20413" lon="-3.063">
        <ele>141</ele>
        <time>2017-05-09T18:53:51Z</time>
      </trkpt>
      <trkpt lat="48.20414" lon="-3.06189">
        <ele>145</ele>
        <time>2017-05-09T18:53:56Z</time>
      </trkpt>
      <trkpt lat="48.20435" lon="-3.06059">
        <ele>143</ele>
        <time>2017-05-09T18:54:01Z</time>
      </trkpt>
      <trkpt lat="48.20465" lon="-3.05861">
        <ele>143</ele>
        <time>2017-05-09T18:54:06Z</time>
      </trkpt>
      <trkpt lat="48.2049" lon="-3.0571">
        <ele>146</ele>
        <time>2017-05-09T18:54:11Z</time>
      </trkpt>
      <trkpt lat="48.20526" lon="-3.05544">
        <ele>141</ele>
        <time>2017-05-09T18:54:16Z</time>
      </trkpt>
      <trkpt lat="48.2052" lon="-3.05511">
        <ele>143</ele>
        <time>2017-05-09T18:54:21Z</time>
      </trkpt>
      <trkpt lat="48.20498" lon="-3.0544">
        <ele>146</ele>
        <time>2017-05-09T18:54:26Z</time>
      </trkpt>
      <trkpt lat="48.20452" lon="-3.05367">
        <ele>142</ele>
        <time>2017-05-09T18:54:31Z</time>
      </trkpt>
      <trkpt lat="48.20418" lon="-3.05342">
        <ele>142</ele>
        <time>2017-05-09T18:54:36Z</time>
      </trkpt>
      <trkpt lat="48.20356" lon="-3.05293">
        <ele>145</ele>
        <time>2017-05-09T18:54:41Z</time>
      </trkpt>
      <trkpt lat="48.20356" lon="-3.05293">
        <ele>145</ele>
        <time>2017-05-09T18:54:46Z</time>
      </trkpt>
      <trkpt lat="48.20342" lon="-3.05223">
        <ele>140</ele>
        <time>2017-05-09T18:54:51Z</time>
      </trkpt>
      <trkpt lat="48.20333" lon="-3.0518">
        <ele>139</ele>
        <time>2017-05-09T18:54:56Z</time>
      </trkpt>
      <trkpt lat="48.20239" lon="-3.05064">
        <ele>150</ele>
        <time>2017-05-09T18:55:01Z</time>
      </trkpt>
      <trkpt lat="48.20192" lon="-3.04948">
        <ele>156</ele>
        <time>2017-05-09T18:55:06Z</time>
      </trkpt>
      <trkpt lat="48.20159" lon="-3.04807">
        <ele>146</ele>
        <time>2017-05-09T18:55:11Z</time>
      </trkpt>
      <trkpt lat="48.2015" lon="-3.04695">
        <ele>147</ele>
        <time>2017-05-09T18:55:16Z</time>
      </trkpt>
      <trkpt lat="48.20159" lon="-3.04584">
        <ele>143</ele>
        <time>2017-05-09T18:55:21Z</time>
      </trkpt>
      <trkpt lat="48.20164" lon="-3.04537">
        <ele>144</ele>
        <time>2017-05-09T18:55:26Z</time>
      </trkpt>
      <trkpt lat="48.20171" lon="-3.04384">
        <ele>147</ele>
        <time>2017-05-09T18:55:31Z</time>
      </trkpt>
      <trkpt lat="48.20184" lon="-3.04274">
        <ele>146</ele>
        <time>2017-05-09T18:55:36Z</time>
      </trkpt>
      <trkpt lat="48.20199" lon="-3.04177">
        <ele>142</ele>
        <time>2017-05-09T18:55:41Z</time>
      </trkpt>
      <trkpt lat="48.2019" lon="-3.04049">
        <ele>142</ele>
        <time>2017-05-09T18:55:46Z</time>
      </trkpt>
      <trkpt lat="48.20156" lon="-3.03871">
        <ele>139</ele>
        <time>2017-05-09T18:55:51Z</time>
      </trkpt>
      <trkpt lat="48.20152" lon="-3.03796">
        <ele>132</ele>
        <time>2017-05-09T18:55:56Z</time>
      </trkpt>
      <trkpt lat="48.20152" lon="-3.03796">
        <ele>132</ele>
        <time>2017-05-09T18:56:01Z</time>
      </trkpt>
      <trkpt lat="48.20147" lon="-3.03769">
        <ele>130</ele>
        <time>2017-05-09T18:56:06Z</time>
      </trkpt>
      <trkpt lat="48.20102" lon="-3.03743">
        <ele>140</ele>
        <time>2017-05-09T18:56:11Z</time>
      </trkpt>
      <trkpt lat="48.20055" lon="-3.03685">
        <ele>136</ele>
        <time>2017-05-09T18:56:16Z</time>
      </trkpt>
      <trkpt lat="48.20026" lon="-3.03614">
        <ele>134</ele>
        <time>2017-05-09T18:56:21Z</time>
      </trkpt>
      <trkpt lat="48.19988" lon="-3.03599">
        <ele>138</ele>
        <time>2017-05-09T18:56:26Z</time>
      </trkpt>
      <trkpt lat="48.19923" lon="-3.03614">
        <ele>150</ele>
        <time>2017-05-09T18:56:31Z</time>
      </trkpt>
      <trkpt lat="48.19899" lon="-3.03606">
        <ele>152</ele>
        <time>2017-05-09T18:56:36Z</time>
      </trkpt>
      <trkpt lat="48.19861" lon="-3.03507">
        <ele>145</ele>
        <time>2017-05-09T18:56:41Z</time>
      </trkpt>
      <trkpt lat="48.19821" lon="-3.03418">
        <ele>128</ele>
        <time>2017-05-09T18:56:46Z</time>
      </trkpt>
      <trkpt lat="48.19763" lon="-3.0338">
        <ele>143</ele>
        <time>2017-05-09T18:56:51Z</time>
      </trkpt>
      <trkpt lat="48.1974" lon="-3.03325">
        <ele>127</ele>
        <time>2017-05-09T18:56:56Z</time>
      </trkpt>
      <trkpt lat="48.1971" lon="-3.03301">
        <ele>141</ele>
        <time>2017-05-09T18:57:01Z</time>
      </trkpt>
      <trkpt lat="48.19654" lon="-3.03279">
        <ele>161</ele>
        <time>2017-05-09T18:57:06Z</time>
      </trkpt>
      <trkpt lat="48.19567" lon="-3.03175">
        <ele>165</ele>
        <time>2017-05-09T18:57:11Z</time>
      </trkpt>
      <trkpt lat="48.19567" lon="-3.03175">
        <ele>165</ele>
        <time>2017-05-09T18:57:16Z</time>
      </trkpt>
      <trkpt lat="48.19493" lon="-3.03003">
        <ele>163</ele>
        <time>2017-05-09T18:57:21Z</time>
      </trkpt>
      <trkpt lat="48.19467" lon="-3.02868">
        <ele>162</ele>
        <time>2017-05-09T18:57:26Z</time>
      </trkpt>
      <trkpt lat="48.19471" lon="-3.02783">
        <ele>160</ele>
        <time>2017-05-09T18:57:31Z</time>
      </trkpt>
      <trkpt lat="48.19492" lon="-3.02643">
        <ele>155</ele>
        <time>2017-05-09T18:57:36Z</time>
      </trkpt>
      <trkpt lat="48.19484" lon="-3.02578">
        <ele>157</ele>
        <time>2017-05-09T18:57:41Z</time>
      </trkpt>
      <trkpt lat="48.19483" lon="-3.02515">
        <ele>157</ele>
        <time>2017-05-09T18:57:46Z</time>
      </trkpt>
      <trkpt lat="48.19513" lon="-3.02343">
        <ele>162</ele>
        <time>2017-05-09T18:57:51Z</time>
      </trkpt>
      <trkpt lat="48.19547" lon="-3.0214">
        <ele>142</ele>
        <time>2017-05-09T18:57:56Z</time>
      </trkpt>
      <trkpt lat="48.19565" lon="-3.02051">
        <ele>144</ele>
        <time>2017-05-09T18:58:01Z</time>
      </trkpt>
      <trkpt lat="48.19575" lon="-3.01989">
        <ele>141</ele>
        <time>2017-05-09T18:58:06Z</time>
      </trkpt>
      <trkpt lat="48.19555" lon="-3.0195">
        <ele>133</ele>
        <time>2017-05-09T18:58:11Z</time>
      </trkpt>
      <trkpt lat="48.1955" lon="-3.01902">
        <ele>125</ele>
        <time>2017-05-09T18:58:16Z</time>
      </trkpt>
      <trkpt lat="48.19504" lon="-3.01913">
        <ele>115</ele>
        <time>2017-05-09T18:58:21Z</time>
      </trkpt>
      <trkpt lat="48.19424" lon="-3.01958">
        <ele>99</ele>
        <time>2017-05-09T18:58:26Z</time>
      </trkpt>
      <trkpt lat="48.19424" lon="-3.01958">
        <ele>99</ele>
        <time>2017-05-09T18:58:31Z</time>
      </trkpt>
      <trkpt lat="48.19366" lon="-3.01994">
        <ele>95</ele>
        <time>2017-05-09T18:58:36Z</time>
      </trkpt>
      <trkpt lat="48.19287" lon="-3.02087">
        <ele>102</ele>
        <time>2017-05-09T18:58:41Z</time>
      </trkpt>
      <trkpt lat="48.19212" lon="-3.02095">
        <ele>106</ele>
        <time>2017-05-09T18:58:46Z</time>
      </trkpt>
      <trkpt lat="48.19146" lon="-3.02067">
        <ele>112</ele>
        <time>2017-05-09T18:58:51Z</time>
      </trkpt>
      <trkpt lat="48.19049" lon="-3.01956">
        <ele>101</ele>
        <time>2017-05-09T18:58:56Z</time>
      </trkpt>
      <trkpt lat="48.18965" lon="-3.01916">
        <ele>93</ele>
        <time>2017-05-09T18:59:01Z</time>
      </trkpt>
      <trkpt lat="48.18883" lon="-3.01849">
        <ele>90</ele>
        <time>2017-05-09T18:59:06Z</time>
      </trkpt>
    </trkseg>
  </trk>
</gpx>